Time;durP1;ratioP1;P1;durP2;ratioP2;P2;SDS_P1;SDS_P2;PMS_P1;PMS_P2;Temp;Humidity;BMP_temperature;BMP_pressure;BME280_temperature;BME280_humidity;BME280_pressure;Samples;Min_cycle;Max_cycle;Signal;HPM_P1;HPM_P2
2022/12/29 00:01:24;;;;;;;;;3.50;3.00;;;;;21.73;40.41;100114.97;5057234;28;47303;-57
2022/12/29 00:03:49;;;;;;;;;3.25;3.25;;;;;21.65;40.45;100085.69;5056989;28;45452;-57
2022/12/29 00:06:15;;;;;;;;;2.00;2.00;;;;;21.68;40.49;100095.97;5057552;28;45389;-58
2022/12/29 00:08:40;;;;;;;;;3.00;3.00;;;;;21.71;40.48;100091.34;5057421;28;45643;-57
2022/12/29 00:11:06;;;;;;;;;2.00;1.00;;;;;21.72;40.69;100100.09;5022223;28;47238;-58
2022/12/29 00:16:15;;;;;;;;;1.50;1.50;;;;;21.72;40.67;100090.38;5057231;28;45323;-55
2022/12/29 00:18:41;;;;;;;;;2.00;2.00;;;;;21.65;40.53;100075.97;5056640;28;50735;-55
2022/12/29 00:35:07;;;;;;;;;1.25;1.25;;;;;21.69;40.55;100076.56;5056784;28;45850;-55
2022/12/29 00:35:45;;;;;;;;;2.00;2.00;;;;;21.65;40.67;100080.41;5056851;28;45304;-56
2022/12/29 00:46:24;;;;;;;;;1.00;1.00;;;;;21.61;40.82;100063.94;5056456;28;45725;-57
2022/12/29 00:51:33;;;;;;;;;1.00;1.00;;;;;21.59;40.80;100071.13;5056624;28;45250;-58
2022/12/29 00:53:58;;;;;;;;;1.25;1.00;;;;;21.59;40.83;100076.41;5056248;28;45894;-56
2022/12/29 00:56:24;;;;;;;;;1.00;1.00;;;;;21.60;40.88;100068.38;5056380;28;45408;-57
2022/12/29 00:58:49;;;;;;;;;2.00;2.00;;;;;21.54;40.66;100058.25;5056028;28;57390;-58
2022/12/29 01:01:14;;;;;;;;;3.00;1.50;;;;;21.51;40.71;100074.28;5055839;28;50826;-58
2022/12/29 01:03:39;;;;;;;;;2.25;1.00;;;;;21.48;40.94;100074.50;5056120;28;45422;-58
2022/12/29 01:06:08;;;;;;;;;1.25;1.25;;;;;21.55;40.98;100091.56;5056079;28;45433;-58
2022/12/29 01:08:33;;;;;;;;;1.75;1.75;;;;;21.49;40.89;100081.47;5056446;28;45337;-59
2022/12/29 01:11:05;;;;;;;;;1.00;1.00;;;;;21.55;40.84;100088.09;5056387;28;45508;-57
2022/12/29 01:13:31;;;;;;;;;1.00;1.00;;;;;21.54;40.69;100089.91;5056074;28;46323;-56
2022/12/29 01:15:57;;;;;;;;;1.00;1.00;;;;;21.52;40.99;100064.56;5056045;28;45375;-59
2022/12/29 01:18:24;;;;;;;;;3.50;2.00;;;;;21.52;40.92;100081.25;5056538;28;45369;-58
2022/12/29 01:20:50;;;;;;;;;1.00;1.00;;;;;21.43;41.02;100066.09;5056589;28;45483;-58
2022/12/29 01:23:15;;;;;;;;;1.75;1.00;;;;;21.50;40.68;100083.16;5038018;28;45427;-57
2022/12/29 01:25:41;;;;;;;;;2.25;0.50;;;;;21.50;41.07;100087.59;5055910;28;45301;-57
2022/12/29 01:28:08;;;;;;;;;1.00;1.00;;;;;21.49;40.96;100081.47;5056043;28;45225;-58
2022/12/29 01:30:34;;;;;;;;;3.25;2.00;;;;;21.50;41.14;100082.31;5054817;28;45625;-58
2022/12/29 01:32:59;;;;;;;;;1.50;1.50;;;;;21.49;40.98;100091.19;5055905;28;45490;-56
2022/12/29 01:35:25;;;;;;;;;1.25;1.25;;;;;21.47;41.19;100097.41;5055920;28;45415;-58
2022/12/29 01:37:50;;;;;;;;;3.25;1.25;;;;;21.42;40.97;100074.94;5056165;28;45411;-56
2022/12/29 01:40:15;;;;;;;;;1.00;1.00;;;;;21.46;41.14;100081.66;5055964;28;45601;-55
2022/12/29 01:42:41;;;;;;;;;1.75;1.00;;;;;21.45;41.16;100074.72;5055597;28;46010;-54
2022/12/29 01:45:11;;;;;;;;;1.00;1.00;;;;;21.45;41.21;100085.25;5054958;28;61578;-55
2022/12/29 01:47:42;;;;;;;;;0.00;0.00;;;;;21.43;40.82;100081.91;5055407;28;45285;-57
2022/12/29 01:50:16;;;;;;;;;0.50;0.00;;;;;21.40;40.97;100090.03;5056098;28;45272;-58
2022/12/29 01:52:50;;;;;;;;;1.00;1.00;;;;;21.41;41.23;100092.53;5055562;28;46197;-58
2022/12/29 01:55:15;;;;;;;;;1.00;1.00;;;;;21.40;41.06;100101.41;5058283;28;45697;-56
2022/12/29 01:57:45;;;;;;;;;1.00;1.00;;;;;21.42;41.39;100106.59;5059331;28;45794;-57
2022/12/29 02:00:13;;;;;;;;;1.00;1.00;;;;;21.40;40.93;100092.66;5059485;28;45474;-57
2022/12/29 02:02:42;;;;;;;;;1.00;1.00;;;;;21.36;41.33;100097.31;5058901;28;46338;-55
2022/12/29 02:05:15;;;;;;;;;1.00;1.00;;;;;21.38;41.11;100082.25;5059147;28;45433;-57
2022/12/29 02:07:42;;;;;;;;;4.00;1.00;;;;;21.39;41.20;100085.72;5059166;28;45339;-58
2022/12/29 02:10:07;;;;;;;;;1.00;1.00;;;;;21.37;41.33;100100.78;5041087;28;45417;-56
2022/12/29 02:12:33;;;;;;;;;0.00;0.00;;;;;21.29;41.30;100102.19;5058812;28;46053;-59
2022/12/29 02:15:01;;;;;;;;;1.00;1.00;;;;;21.37;41.15;100135.03;5058868;28;45415;-58
2022/12/29 02:17:43;;;;;;;;;0.50;0.50;;;;;21.36;41.07;100133.38;5059480;28;45511;-57
2022/12/29 02:20:30;;;;;;;;;2.00;0.50;;;;;21.35;41.39;100129.03;5059141;28;45442;-57
2022/12/29 02:23:19;;;;;;;;;0.50;0.50;;;;;21.34;41.33;100119.44;5058876;28;46911;-57
2022/12/29 02:26:21;;;;;;;;;0.00;0.00;;;;;21.33;41.54;100113.34;5058748;28;45685;-58
2022/12/29 02:29:17;;;;;;;;;0.00;0.00;;;;;21.26;41.34;100102.38;4993550;28;45315;-58
2022/12/29 02:31:45;;;;;;;;;0.00;0.00;;;;;21.29;41.28;100102.19;5059104;28;45378;-57
2022/12/29 02:34:21;;;;;;;;;0.50;0.50;;;;;21.28;41.28;100094.34;5058370;28;46353;-55
2022/12/29 02:37:12;;;;;;;;;1.00;1.00;;;;;21.27;41.60;100082.97;5058233;28;53849;-57
2022/12/29 02:40:00;;;;;;;;;0.00;0.00;;;;;21.26;41.44;100089.22;5053599;28;47357;-56
2022/12/29 02:42:44;;;;;;;;;1.00;0.00;;;;;21.21;41.26;100072.03;5059170;28;45391;-58
2022/12/29 02:45:21;;;;;;;;;0.00;0.00;;;;;21.23;41.21;100094.69;5040150;28;45499;-56
2022/12/29 02:48:02;;;;;;;;;0.00;0.00;;;;;21.24;41.06;100074.47;5058462;28;45828;-58
2022/12/29 02:50:36;;;;;;;;;0.00;0.00;;;;;21.23;41.75;100076.22;5058826;28;45514;-58
2022/12/29 02:53:06;;;;;;;;;0.00;0.00;;;;;21.21;41.36;100078.16;5058755;28;45315;-56
2022/12/29 02:55:31;;;;;;;;;1.00;0.00;;;;;21.20;41.22;100089.66;5058265;28;46053;-57
2022/12/29 02:58:26;;;;;;;;;1.00;0.00;;;;;21.20;41.61;100078.25;5040540;28;45298;-57
2022/12/29 03:01:13;;;;;;;;;0.00;0.00;;;;;21.18;41.54;100091.53;5036876;28;45375;-57
2022/12/29 03:03:59;;;;;;;;;0.25;0.25;;;;;21.17;41.64;100095.94;5058383;28;45208;-57
2022/12/29 03:06:30;;;;;;;;;0.00;0.00;;;;;21.17;41.62;100079.31;5057277;28;46275;-58
2022/12/29 03:09:20;;;;;;;;;0.00;0.00;;;;;21.15;41.60;100086.47;5058396;28;45453;-55
2022/12/29 03:12:08;;;;;;;;;0.00;0.00;;;;;21.15;41.76;100073.31;5058284;28;45422;-55
2022/12/29 03:17:54;;;;;;;;;0.75;0.75;;;;;21.07;41.73;100071.19;5057827;28;45687;-57
2022/12/29 03:20:35;;;;;;;;;0.00;0.00;;;;;21.11;41.65;100072.69;5057950;28;45671;-57
2022/12/29 03:23:03;;;;;;;;;0.00;0.00;;;;;21.10;41.95;100080.69;5058501;28;45445;-57
2022/12/29 03:25:47;;;;;;;;;0.00;0.00;;;;;21.03;41.24;100079.44;5058394;28;45223;-57
2022/12/29 03:28:21;;;;;;;;;0.00;0.00;;;;;21.02;41.42;100078.59;5039972;28;46266;-58
2022/12/29 03:30:47;;;;;;;;;0.00;0.00;;;;;21.08;41.79;100095.78;5039865;28;45490;-57
2022/12/29 03:33:16;;;;;;;;;0.00;0.00;;;;;21.06;41.48;100079.22;5057867;28;45375;-58
2022/12/29 03:35:45;;;;;;;;;0.00;0.00;;;;;21.06;41.76;100089.75;5057941;28;45483;-57
2022/12/29 03:38:47;;;;;;;;;0.00;0.00;;;;;21.07;41.55;100100.19;5057549;28;46484;-57
2022/12/29 03:41:16;;;;;;;;;0.00;0.00;;;;;21.09;41.68;100097.47;5056730;28;45841;-56
2022/12/29 03:43:42;;;;;;;;;1.50;0.00;;;;;21.10;41.66;100099.97;5057634;28;45349;-57
2022/12/29 03:46:07;;;;;;;;;0.00;0.00;;;;;21.12;41.59;100105.13;5039557;28;45592;-57
2022/12/29 03:48:32;;;;;;;;;0.00;0.00;;;;;21.17;41.68;100110.94;5056943;28;59458;-55
2022/12/29 03:50:58;;;;;;;;;0.00;0.00;;;;;21.15;41.70;100100.50;5056845;28;67245;-57
2022/12/29 03:53:24;;;;;;;;;1.00;0.00;;;;;21.24;41.35;100106.09;5057602;28;45352;-57
2022/12/29 03:55:49;;;;;;;;;0.00;0.00;;;;;21.27;41.67;100109.34;5057147;28;47585;-57
2022/12/29 03:58:14;;;;;;;;;0.25;0.00;;;;;21.25;41.40;100090.16;5056646;28;62870;-57
2022/12/29 04:00:40;;;;;;;;;0.00;0.00;;;;;21.34;41.34;100108.91;5057311;28;45177;-58
2022/12/29 04:03:05;;;;;;;;;0.00;0.00;;;;;21.36;41.46;100096.47;5057441;28;45402;-57
2022/12/29 04:05:31;;;;;;;;;0.00;0.00;;;;;21.35;41.56;100095.63;5057887;28;45269;-55
2022/12/29 04:07:56;;;;;;;;;0.00;0.00;;;;;21.42;41.31;100103.94;5057183;28;46070;-54
2022/12/29 04:10:21;;;;;;;;;0.00;0.00;;;;;21.39;41.10;100098.88;5057095;28;45325;-58
2022/12/29 04:12:47;;;;;;;;;0.00;0.00;;;;;21.47;41.00;100115.00;5056607;28;58777;-56
2022/12/29 04:15:12;;;;;;;;;0.00;0.00;;;;;21.50;41.19;100113.97;5057226;28;45355;-56
2022/12/29 04:17:38;;;;;;;;;0.00;0.00;;;;;21.52;41.04;100107.63;5057036;28;46365;-56
2022/12/29 04:22:48;;;;;;;;;1.00;0.00;;;;;21.57;41.13;100116.03;5056907;28;45379;-55
2022/12/29 04:25:13;;;;;;;;;0.00;0.00;;;;;21.60;41.43;100122.94;5057227;28;45535;-57
2022/12/29 04:27:39;;;;;;;;;0.00;0.00;;;;;21.55;41.01;100112.66;5056986;28;46018;-54
2022/12/29 04:30:04;;;;;;;;;0.00;0.00;;;;;21.64;41.07;100136.72;5056495;28;50949;-54
2022/12/29 04:32:30;;;;;;;;;0.00;0.00;;;;;21.66;41.10;100137.47;5057108;28;45265;-59
2022/12/29 04:34:55;;;;;;;;;0.00;0.00;;;;;21.61;40.89;100130.72;5056747;28;48550;-55
2022/12/29 04:37:20;;;;;;;;;0.00;0.00;;;;;21.69;40.79;100138.09;5056052;28;61686;-57
2022/12/29 04:39:45;;;;;;;;;0.00;0.00;;;;;21.71;40.91;100137.97;5055840;28;68989;-56
2022/12/29 04:42:11;;;;;;;;;0.50;0.00;;;;;21.74;40.70;100140.41;5056461;28;46905;-53
2022/12/29 04:44:36;;;;;;;;;0.00;0.00;;;;;21.73;40.86;100138.72;5056718;28;45395;-54
2022/12/29 04:47:01;;;;;;;;;0.00;0.00;;;;;21.76;40.73;100143.78;5056048;28;67142;-56
2022/12/29 04:49:27;;;;;;;;;0.00;0.00;;;;;21.77;40.72;100145.47;5056109;28;56606;-56
2022/12/29 04:51:52;;;;;;;;;0.00;0.00;;;;;21.77;40.77;100148.09;5055870;28;63878;-58
2022/12/29 04:54:17;;;;;;;;;0.00;0.00;;;;;21.78;40.87;100150.63;5056532;28;45562;-56
2022/12/29 04:56:42;;;;;;;;;0.00;0.00;;;;;21.78;40.77;100147.97;5055618;28;65771;-57
2022/12/29 04:59:08;;;;;;;;;0.00;0.00;;;;;21.80;40.92;100158.41;5056103;28;53559;-57
2022/12/29 05:01:33;;;;;;;;;0.00;0.00;;;;;21.81;40.77;100151.34;5056265;28;55844;-57
2022/12/29 05:03:58;;;;;;;;;1.00;0.00;;;;;21.79;40.62;100156.72;5055660;28;59804;-59
2022/12/29 05:06:24;;;;;;;;;0.00;0.00;;;;;21.78;40.56;100161.16;5056137;28;46142;-57
2022/12/29 05:08:49;;;;;;;;;0.00;0.00;;;;;21.79;40.62;100172.53;5056209;28;45254;-58
2022/12/29 05:11:14;;;;;;;;;0.00;0.00;;;;;21.77;40.58;100175.31;5056376;28;45284;-58
2022/12/29 05:13:39;;;;;;;;;0.00;0.00;;;;;21.75;40.64;100185.13;5056593;28;45316;-58
2022/12/29 05:16:05;;;;;;;;;0.00;0.00;;;;;21.69;40.83;100171.53;5054180;28;70843;-58
2022/12/29 05:18:31;;;;;;;;;0.00;0.00;;;;;21.74;40.54;100164.13;5056213;28;45209;-58
2022/12/29 05:20:56;;;;;;;;;0.00;0.00;;;;;21.73;40.82;100179.09;5056042;28;45374;-58
2022/12/29 05:23:21;;;;;;;;;0.00;0.00;;;;;21.68;40.98;100164.56;5056140;28;45499;-59
2022/12/29 05:25:46;;;;;;;;;0.00;0.00;;;;;21.71;40.51;100174.88;5055877;28;46316;-56
2022/12/29 05:28:12;;;;;;;;;0.00;0.00;;;;;21.62;40.80;100166.69;5055061;28;61747;-54
2022/12/29 05:30:38;;;;;;;;;1.00;0.00;;;;;21.68;40.51;100175.97;5055720;28;45363;-57
2022/12/29 05:33:03;;;;;;;;;0.00;0.00;;;;;21.65;40.76;100176.16;5056132;28;48453;-55
2022/12/29 05:35:28;;;;;;;;;1.00;0.00;;;;;21.68;40.76;100180.38;5036963;28;71673;-58
2022/12/29 05:37:53;;;;;;;;;0.00;0.00;;;;;21.66;40.71;100196.31;5055866;28;45656;-58
2022/12/29 05:40:19;;;;;;;;;0.00;0.00;;;;;21.66;40.67;100187.56;5055163;28;64216;-57
2022/12/29 05:42:44;;;;;;;;;0.00;0.00;;;;;21.65;40.90;100186.72;5055311;28;53570;-56
2022/12/29 05:45:10;;;;;;;;;0.00;0.00;;;;;21.63;40.88;100196.53;5055835;28;45363;-55
2022/12/29 05:47:35;;;;;;;;;0.50;0.00;;;;;21.62;40.66;100194.84;5056037;28;45406;-57
2022/12/29 05:50:01;;;;;;;;;0.00;0.00;;;;;21.61;40.59;100194.00;5055811;28;45367;-56
2022/12/29 05:52:26;;;;;;;;;1.00;0.00;;;;;21.60;40.76;100194.97;5055934;28;45300;-55
2022/12/29 05:54:52;;;;;;;;;0.00;0.00;;;;;21.53;40.70;100187.53;5055259;28;56934;-57
2022/12/29 05:57:17;;;;;;;;;2.50;0.00;;;;;21.59;40.80;100209.09;5055602;28;45434;-55
2022/12/29 05:59:42;;;;;;;;;0.00;0.00;;;;;21.58;40.50;100212.63;5054878;28;66386;-57
2022/12/29 06:02:09;;;;;;;;;0.00;0.00;;;;;21.50;40.97;100204.44;5056158;28;45331;-57
2022/12/29 06:04:34;;;;;;;;;0.00;0.00;;;;;21.53;40.63;100220.03;5055491;28;46538;-54
2022/12/29 06:06:59;;;;;;;;;1.00;0.00;;;;;21.54;40.56;100232.28;5055564;28;49551;-57
2022/12/29 06:09:25;;;;;;;;;0.00;0.00;;;;;21.50;40.85;100222.88;5055686;28;45862;-56
2022/12/29 06:11:50;;;;;;;;;0.00;0.00;;;;;21.47;40.96;100217.81;5055790;28;45758;-58
2022/12/29 06:14:15;;;;;;;;;0.00;0.00;;;;;21.51;40.78;100227.22;5053707;28;52032;-57
2022/12/29 06:16:41;;;;;;;;;0.00;0.00;;;;;21.44;40.54;100224.16;5054580;28;66912;-58
2022/12/29 06:19:07;;;;;;;;;1.00;0.00;;;;;21.49;40.66;100237.00;5055763;28;45338;-57
2022/12/29 06:21:32;;;;;;;;;0.75;0.50;;;;;21.47;40.44;100233.63;5055405;28;45522;-58
2022/12/29 06:23:57;;;;;;;;;0.00;0.00;;;;;21.47;40.60;100241.53;5055228;28;46007;-58
2022/12/29 06:26:23;;;;;;;;;0.50;0.00;;;;;21.47;40.64;100246.81;5054826;28;52308;-57
2022/12/29 06:28:48;;;;;;;;;0.00;0.00;;;;;21.42;41.02;100235.75;5055330;28;45346;-58
2022/12/29 06:31:13;;;;;;;;;0.00;0.00;;;;;21.45;40.80;100248.72;5055461;28;45406;-57
2022/12/29 06:33:39;;;;;;;;;0.00;0.00;;;;;21.45;40.57;100253.97;5055461;28;45998;-58
2022/12/29 06:36:04;;;;;;;;;0.00;0.00;;;;;21.44;40.74;100268.97;5055099;28;45370;-58
2022/12/29 06:38:30;;;;;;;;;0.00;0.00;;;;;21.44;40.55;100278.69;5055231;28;45374;-57
2022/12/29 06:40:55;;;;;;;;;0.00;0.00;;;;;21.42;40.53;100270.88;5055671;28;45589;-56
2022/12/29 06:43:20;;;;;;;;;0.00;0.00;;;;;21.41;40.85;100284.16;5057728;28;63820;-55
2022/12/29 06:45:46;;;;;;;;;0.00;0.00;;;;;21.35;40.47;100271.38;5058445;28;45324;-55
2022/12/29 06:48:11;;;;;;;;;0.00;0.00;;;;;21.41;40.86;100292.06;5058975;28;45295;-58
2022/12/29 06:50:37;;;;;;;;;0.00;0.00;;;;;21.40;40.64;100293.00;5058105;28;45322;-58
2022/12/29 06:53:02;;;;;;;;;0.00;0.00;;;;;21.38;41.24;100303.66;5057663;28;46235;-58
2022/12/29 06:55:28;;;;;;;;;1.00;0.00;;;;;21.39;40.93;100309.78;5056652;28;45458;-58
2022/12/29 06:57:55;;;;;;;;;0.00;0.00;;;;;21.38;40.74;100306.31;5058423;28;45306;-57
2022/12/29 07:00:21;;;;;;;;;0.00;0.00;;;;;21.36;40.94;100313.47;5058578;28;45308;-58
2022/12/29 07:02:46;;;;;;;;;1.00;0.00;;;;;21.30;41.01;100305.97;5058046;28;46285;-57
2022/12/29 07:05:13;;;;;;;;;0.00;0.00;;;;;21.34;40.44;100309.22;5058114;28;55039;-56
2022/12/29 07:07:38;;;;;;;;;0.00;0.00;;;;;21.34;41.07;100311.84;5058601;28;45767;-56
2022/12/29 07:10:04;;;;;;;;;0.00;0.00;;;;;21.31;40.56;100312.91;5058390;28;45595;-57
2022/12/29 07:12:29;;;;;;;;;0.50;0.00;;;;;21.25;40.96;100301.00;5057517;28;45493;-57
2022/12/29 07:14:55;;;;;;;;;1.00;0.00;;;;;21.31;40.85;100315.56;5057406;28;61345;-59
2022/12/29 07:17:20;;;;;;;;;0.00;0.00;;;;;21.28;40.93;100313.97;5058142;28;45386;-58
2022/12/29 07:19:45;;;;;;;;;0.00;0.00;;;;;21.29;40.46;100325.34;5056271;28;59697;-55
2022/12/29 07:22:10;;;;;;;;;0.00;0.00;;;;;21.25;40.34;100319.44;5057996;28;48154;-57
2022/12/29 07:24:36;;;;;;;;;0.75;0.00;;;;;21.23;40.54;100323.13;5057702;28;45413;-57
2022/12/29 07:27:01;;;;;;;;;3.00;1.00;;;;;21.20;39.98;100323.34;5057901;28;45376;-57
2022/12/29 07:29:26;;;;;;;;;0.00;0.00;;;;;21.15;40.27;100329.78;5058012;28;45391;-57
2022/12/29 07:31:52;;;;;;;;;0.00;0.00;;;;;21.12;40.08;100335.22;5057409;28;57294;-54
2022/12/29 07:34:17;;;;;;;;;1.50;0.00;;;;;21.12;40.28;100329.97;5057652;28;45311;-55
2022/12/29 07:36:42;;;;;;;;;0.00;0.00;;;;;21.13;40.25;100330.78;5057749;28;55537;-55
2022/12/29 07:39:07;;;;;;;;;0.00;0.00;;;;;21.08;40.29;100320.56;5057364;28;54245;-57
2022/12/29 07:41:33;;;;;;;;;0.75;0.00;;;;;21.15;40.16;100336.81;5057553;28;46027;-57
2022/12/29 07:43:58;;;;;;;;;0.00;0.00;;;;;21.15;40.22;100342.94;5057518;28;45374;-60
2022/12/29 07:46:23;;;;;;;;;2.00;0.00;;;;;21.14;40.42;100341.25;5057036;28;58550;-60
2022/12/29 07:48:49;;;;;;;;;0.00;0.00;;;;;21.11;39.93;100338.81;5056953;28;61129;-60
2022/12/29 07:51:14;;;;;;;;;2.67;1.00;;;;;21.13;40.01;100341.34;5057113;28;61539;-58
2022/12/29 07:53:39;;;;;;;;;2.00;0.00;;;;;21.14;39.85;100343.88;5056356;28;62196;-56
2022/12/29 07:56:05;;;;;;;;;0.00;0.00;;;;;21.19;39.92;100356.75;5056929;28;57837;-57
2022/12/29 07:58:31;;;;;;;;;0.00;0.00;;;;;21.14;39.61;100346.53;5056768;28;45332;-56
2022/12/29 08:00:56;;;;;;;;;2.00;0.75;;;;;21.21;39.81;100368.06;5057097;28;45347;-55
2022/12/29 08:03:23;;;;;;;;;1.50;0.25;;;;;21.18;39.67;100376.16;5057301;28;45249;-55
2022/12/29 08:05:48;;;;;;;;;1.50;1.50;;;;;21.20;39.23;100370.78;5057185;28;45346;-57
2022/12/29 08:08:14;;;;;;;;;1.75;1.00;;;;;21.19;39.45;100377.84;5057012;28;45367;-57
2022/12/29 08:10:39;;;;;;;;;5.00;1.75;;;;;21.20;39.40;100379.53;5055649;28;50325;-55
2022/12/29 08:13:04;;;;;;;;;3.00;1.00;;;;;21.20;39.68;100378.69;5056501;28;64025;-59
2022/12/29 08:15:29;;;;;;;;;1.00;1.00;;;;;21.18;39.45;100373.53;5056731;28;45316;-57
2022/12/29 08:17:55;;;;;;;;;2.33;1.33;;;;;21.17;39.79;100374.47;5056633;28;58270;-58
2022/12/29 08:20:20;;;;;;;;;5.00;2.00;;;;;21.14;39.59;100377.28;5056303;28;57015;-58
2022/12/29 08:22:45;;;;;;;;;4.25;2.25;;;;;21.17;39.52;100388.47;5057320;28;45506;-57
2022/12/29 08:25:11;;;;;;;;;5.50;1.00;;;;;21.20;39.25;100392.72;5056520;28;45426;-58
2022/12/29 08:27:36;;;;;;;;;3.25;2.00;;;;;21.18;39.49;100391.97;5057069;28;45418;-57
2022/12/29 08:30:02;;;;;;;;;3.75;2.25;;;;;21.19;39.29;100404.19;5056707;28;46049;-58
2022/12/29 08:32:28;;;;;;;;;2.25;2.25;;;;;21.20;39.23;100413.81;5056688;28;45298;-58
2022/12/29 08:48:21;;;;;;;;;2.50;1.25;;;;;21.15;38.66;100431.69;5058491;28;45432;-49
2022/12/29 08:50:48;;;;;;;;;3.00;1.00;;;;;21.11;38.82;100443.38;5061027;28;45507;-48
2022/12/29 08:53:14;;;;;;;;;4.25;1.00;;;;;21.07;38.77;100444.50;5063868;28;45368;-50
2022/12/29 08:55:39;;;;;;;;;2.75;1.00;;;;;21.03;38.70;100443.00;5062086;28;53494;-50
2022/12/29 08:58:04;;;;;;;;;4.50;2.00;;;;;21.03;38.53;100448.28;5045008;28;45328;-48
2022/12/29 09:00:29;;;;;;;;;2.67;1.00;;;;;20.94;38.81;100441.81;5056246;28;57336;-49
2022/12/29 09:02:55;;;;;;;;;1.67;1.00;;;;;20.97;38.68;100445.09;5055993;28;64866;-51
2022/12/29 09:05:20;;;;;;;;;2.50;1.50;;;;;20.94;38.61;100449.72;5055843;28;55240;-49
2022/12/29 09:07:45;;;;;;;;;1.50;0.25;;;;;20.92;39.25;100452.44;5057044;28;45451;-50
2022/12/29 09:10:11;;;;;;;;;1.00;1.00;;;;;20.91;38.69;100450.75;5057568;28;45644;-50
2022/12/29 09:12:36;;;;;;;;;5.75;4.25;;;;;20.89;39.14;100457.06;5067944;28;45183;-49
2022/12/29 09:15:02;;;;;;;;;3.00;2.00;;;;;20.86;38.95;100458.09;5077836;28;44651;-51
2022/12/29 09:17:45;;;;;;;;;3.00;2.00;;;;;20.86;38.81;100458.09;5056983;28;45241;-54
2022/12/29 09:20:13;;;;;;;;;4.25;2.00;;;;;20.84;38.75;100460.00;5057044;28;45470;-52
2022/12/29 09:22:38;;;;;;;;;3.25;1.25;;;;;20.82;38.60;100456.59;5056572;28;45355;-53
2022/12/29 09:25:05;;;;;;;;;5.75;2.50;;;;;20.81;38.82;100455.75;5056535;28;45501;-53
2022/12/29 09:27:30;;;;;;;;;6.00;2.00;;;;;20.72;39.08;100445.78;5056898;28;45421;-53
2022/12/29 09:29:56;;;;;;;;;5.75;1.00;;;;;20.79;38.79;100477.84;5074859;28;45478;-50
2022/12/29 09:32:21;;;;;;;;;5.00;1.25;;;;;20.70;39.06;100474.81;5053264;28;49709;-52
2022/12/29 09:34:46;;;;;;;;;2.00;1.25;;;;;20.73;38.88;100480.84;5058695;28;45398;-48
2022/12/29 09:37:12;;;;;;;;;1.00;1.00;;;;;20.70;38.62;100480.09;5056283;28;45879;-51
2022/12/29 09:39:37;;;;;;;;;2.00;2.00;;;;;20.68;39.05;100475.88;5057081;28;45351;-49
2022/12/29 09:42:28;;;;;;;;;2.33;1.00;;;;;20.67;38.89;100484.69;5055997;28;74980;-47
2022/12/29 09:45:14;;;;;;;;;1.25;1.00;;;;;20.64;38.86;100475.22;5074285;28;44969;-53
2022/12/29 09:47:42;;;;;;;;;3.25;1.50;;;;;20.64;38.80;100496.28;5057611;28;45493;-53
2022/12/29 09:50:21;;;;;;;;;3.50;1.75;;;;;20.65;39.15;100492.72;5056652;28;45669;-50
2022/12/29 09:52:53;;;;;;;;;3.50;1.00;;;;;20.65;39.05;100497.97;5056218;28;46317;-49
2022/12/29 09:55:23;;;;;;;;;7.00;1.00;;;;;20.64;39.23;100498.03;5062321;28;45371;-50
2022/12/29 09:58:05;;;;;;;;;2.00;1.00;;;;;20.64;39.31;100496.28;5078179;28;44814;-51
2022/12/29 10:00:40;;;;;;;;;2.00;1.00;;;;;20.64;39.37;100506.81;5041561;28;45222;-49
2022/12/29 10:03:24;;;;;;;;;3.00;1.00;;;;;20.64;39.48;100509.44;5036818;28;46434;-51
2022/12/29 10:06:01;;;;;;;;;3.25;2.00;;;;;20.66;39.58;100517.25;5037017;28;45661;-48
2022/12/29 10:08:39;;;;;;;;;3.00;1.00;;;;;20.65;39.28;100524.31;5043627;28;45328;-47
2022/12/29 10:11:13;;;;;;;;;3.25;1.50;;;;;20.63;39.53;100506.88;5039673;28;45258;-46
2022/12/29 10:13:57;;;;;;;;;3.00;1.00;;;;;20.67;39.58;100522.41;5018245;28;46102;-46
2022/12/29 10:16:43;;;;;;;;;1.75;1.00;;;;;20.68;39.79;100518.84;5038841;28;45775;-48
2022/12/29 10:19:15;;;;;;;;;2.00;0.00;;;;;20.69;39.79;100517.91;5039806;28;45376;-43
2022/12/29 10:21:53;;;;;;;;;3.50;1.00;;;;;20.65;39.36;100508.50;5040809;28;45420;-46
2022/12/29 10:24:21;;;;;;;;;2.00;2.00;;;;;20.69;39.72;100515.25;5055475;28;45388;-47
2022/12/29 10:26:48;;;;;;;;;3.50;0.75;;;;;20.63;39.76;100513.00;5045462;28;45407;-47
2022/12/29 10:29:19;;;;;;;;;3.00;1.00;;;;;20.70;39.39;100526.66;5038976;28;45442;-48
2022/12/29 10:31:47;;;;;;;;;2.25;2.00;;;;;20.69;39.29;100524.97;5039173;28;45322;-49
2022/12/29 10:34:27;;;;;;;;;1.25;1.25;;;;;20.62;39.86;100506.06;5038624;28;46364;-51
2022/12/29 10:37:03;;;;;;;;;2.00;0.50;;;;;20.66;39.74;100514.59;5050894;28;45439;-49
2022/12/29 10:39:40;;;;;;;;;3.50;1.00;;;;;20.67;39.68;100522.41;5057817;28;45377;-46
2022/12/29 10:42:14;;;;;;;;;3.00;1.00;;;;;20.67;39.83;100511.88;5059859;28;45593;-46
2022/12/29 10:44:39;;;;;;;;;2.25;1.50;;;;;20.69;39.48;100514.44;5064064;28;46789;-50
2022/12/29 10:47:12;;;;;;;;;4.00;2.00;;;;;20.68;39.82;100510.09;5062748;28;45327;-47
2022/12/29 10:49:42;;;;;;;;;1.50;0.50;;;;;20.69;39.80;100520.53;5059588;28;45430;-46
2022/12/29 10:52:09;;;;;;;;;1.00;1.00;;;;;20.69;39.73;100517.91;5059169;28;45331;-45
2022/12/29 10:54:58;;;;;;;;;2.00;1.00;;;;;20.64;39.92;100500.69;5057654;28;47350;-50
2022/12/29 10:57:30;;;;;;;;;3.50;1.25;;;;;20.64;39.45;100506.81;5058881;28;45802;-50
2022/12/29 10:59:57;;;;;;;;;3.75;1.00;;;;;20.69;39.57;100511.78;5059369;28;45277;-43
2022/12/29 11:02:46;;;;;;;;;1.00;1.00;;;;;20.69;39.41;100509.16;5040831;28;45592;-44
2022/12/29 11:05:35;;;;;;;;;2.00;1.00;;;;;20.64;39.62;100504.19;5011569;28;46609;-47
2022/12/29 11:08:09;;;;;;;;;1.25;1.25;;;;;20.72;39.62;100513.38;5058613;28;45674;-44
2022/12/29 11:10:39;;;;;;;;;0.75;0.00;;;;;20.73;39.69;100512.44;5059817;28;45331;-45
2022/12/29 11:13:26;;;;;;;;;4.00;1.00;;;;;20.77;39.65;100520.09;5065401;28;45323;-49
2022/12/29 11:15:52;;;;;;;;;2.50;0.75;;;;;20.79;39.78;100514.72;5074605;28;46273;-46
2022/12/29 11:18:32;;;;;;;;;1.00;1.00;;;;;20.84;39.58;100525.84;5061949;28;45421;-47
2022/12/29 11:21:00;;;;;;;;;2.00;1.00;;;;;20.87;39.79;100520.38;5065695;28;45399;-48
2022/12/29 11:23:32;;;;;;;;;3.75;1.25;;;;;20.92;39.81;100525.38;5046457;28;45230;-47
2022/12/29 11:26:10;;;;;;;;;2.25;1.00;;;;;20.95;39.50;100526.03;5058111;28;47070;-50
2022/12/29 11:28:36;;;;;;;;;0.75;0.75;;;;;20.98;39.76;100517.06;5057457;28;45850;-45
2022/12/29 11:31:03;;;;;;;;;1.50;1.00;;;;;21.01;39.63;100528.25;5058490;28;45390;-45
2022/12/29 11:33:29;;;;;;;;;2.25;1.00;;;;;21.04;39.64;100521.13;5069452;28;45579;-47
2022/12/29 11:36:04;;;;;;;;;3.00;2.00;;;;;21.05;39.49;100510.50;5060672;28;46270;-49
2022/12/29 11:38:36;;;;;;;;;1.00;1.00;;;;;21.10;39.34;100521.56;5058782;28;45715;-47
2022/12/29 11:41:04;;;;;;;;;1.75;0.00;;;;;21.13;39.79;100529.28;5058437;28;45330;-45
2022/12/29 11:43:33;;;;;;;;;4.25;0.75;;;;;21.11;39.38;100504.00;5058621;28;45559;-44
2022/12/29 11:46:03;;;;;;;;;2.25;1.00;;;;;21.17;39.21;100512.34;5058140;28;46528;-47
2022/12/29 11:48:33;;;;;;;;;0.00;0.00;;;;;21.21;39.64;100517.41;5058636;28;45244;-44
2022/12/29 11:50:59;;;;;;;;;2.00;1.00;;;;;21.24;39.78;100514.59;5058521;28;45407;-44
2022/12/29 11:53:32;;;;;;;;;2.00;1.00;;;;;21.24;39.29;100512.78;5058316;28;45464;-47
2022/12/29 11:56:05;;;;;;;;;0.00;0.00;;;;;21.29;39.34;100509.84;5063903;28;45459;-43
2022/12/29 11:58:34;;;;;;;;;2.00;2.00;;;;;21.26;39.12;100500.38;5068412;28;45231;-45
2022/12/29 12:01:18;;;;;;;;;0.25;0.25;;;;;21.29;39.08;100486.13;5064910;28;45513;-51
2022/12/29 12:04:03;;;;;;;;;1.25;0.00;;;;;21.35;39.35;100488.41;5059490;28;45418;-43
2022/12/29 12:06:33;;;;;;;;;1.00;1.00;;;;;21.37;39.35;100485.66;5058334;28;45908;-48
2022/12/29 12:09:06;;;;;;;;;0.75;0.75;;;;;21.38;39.51;100474.16;5058136;28;45391;-44
2022/12/29 12:11:41;;;;;;;;;1.75;0.50;;;;;21.40;39.26;100488.09;5058293;28;45517;-46
2022/12/29 12:14:20;;;;;;;;;1.75;1.00;;;;;21.40;39.14;100491.56;5058142;28;45322;-45
2022/12/29 12:16:55;;;;;;;;;3.25;1.00;;;;;21.41;39.26;100495.06;5057764;28;46184;-45
2022/12/29 12:19:46;;;;;;;;;1.00;1.00;;;;;21.42;39.23;100499.41;5057838;28;45450;-44